»·PEaware :: N576TB KSAC-KSBP

N576TB :: KSAC-KSBP

FLIGHT INFORMATION

Flight Status: Arrived
Operator: Privately registered:
United States
More flights under this callsign
Pilot: Anonymous 8274 (8274)
Aircraft: BEECH AIRCRAFT DEBONAIR BONANZA
(BE33)
More flights by this aircraft type
Origin: KSAC Sacramento Executive
United States
Destination: KSBP San Luis Co Regl
United States
More flights between these airports :: More routes between these airports
Route: + MQO
File this flight plan on PilotEdge
Remarks:
Altitude:
(Current/Filed)
9,000ft
Speed:
(Current/Filed)
160kts
Departed: 02-Feb-19 06:33 PM
Arrived: 02-Feb-19 08:47 PM
Distance/Time
Traveled:
201nm/2:14
Distance/Time
To Go:
Arrived

Flight Plot

Page will automatically refresh every two minutes.

Flight plan parsing failed; only flown route is shown


Map Options




Map Legend


Flown Route
Filed Route
Departure Airport
Arrival Airport
Navaid (VOR, NDB)
Fix

Horizontal Profiles

Position Reports

Time Latitude Longitude Heading Altitude Ground
Speed
02-Feb-19 17:56 38.514765 -121.498400 226 22ft 0kts
02-Feb-19 17:57 38.514765 -121.498400 226 22ft 0kts
02-Feb-19 17:58 38.514765 -121.498400 226 22ft 0kts
02-Feb-19 18:00 38.514765 -121.498400 226 22ft 0kts
02-Feb-19 18:01 38.514765 -121.498400 226 22ft 0kts
02-Feb-19 18:02 38.514765 -121.498400 226 22ft 0kts
02-Feb-19 18:03 38.514765 -121.498400 226 22ft 0kts
02-Feb-19 18:04 38.514765 -121.498400 226 22ft 0kts
02-Feb-19 18:05 38.514765 -121.498400 226 22ft 0kts
02-Feb-19 18:06 38.514765 -121.498400 226 22ft 0kts
02-Feb-19 18:07 38.514765 -121.498400 226 22ft 0kts
02-Feb-19 18:08 38.514765 -121.498400 226 22ft 0kts
02-Feb-19 18:09 38.514765 -121.498400 226 22ft 0kts
02-Feb-19 18:10 38.514765 -121.498400 226 22ft 0kts
02-Feb-19 18:11 38.514765 -121.498400 226 22ft 0kts
02-Feb-19 18:12 38.514765 -121.498400 226 22ft 0kts
02-Feb-19 18:13 38.514765 -121.498400 226 22ft 0kts
02-Feb-19 18:14 38.514765 -121.498400 226 22ft 0kts
02-Feb-19 18:15 38.514765 -121.498400 226 22ft 0kts
02-Feb-19 18:16 38.514765 -121.498400 226 22ft 0kts
02-Feb-19 18:17 38.514765 -121.498400 226 22ft 0kts
02-Feb-19 18:18 38.514765 -121.498400 226 22ft 0kts
02-Feb-19 18:18 38.514765 -121.498400 226 22ft 0kts
02-Feb-19 18:20 38.514765 -121.498400 226 22ft 0kts
02-Feb-19 18:21 38.514765 -121.498400 226 22ft 0kts
02-Feb-19 18:21 38.514765 -121.498400 226 22ft 0kts
02-Feb-19 18:22 38.514347 -121.498073 101 22ft 0kts
02-Feb-19 18:23 38.514347 -121.498074 101 22ft 0kts
02-Feb-19 18:24 38.514347 -121.498074 101 22ft 0kts
02-Feb-19 18:25 38.514347 -121.498074 101 22ft 0kts
02-Feb-19 18:26 38.514347 -121.498074 101 22ft 0kts
02-Feb-19 18:27 38.514347 -121.498074 101 22ft 0kts
02-Feb-19 18:28 38.514322 -121.497892 102 22ft 0kts
02-Feb-19 18:29 38.512957 -121.495973 212 22ft 15kts
02-Feb-19 18:30 38.511372 -121.496874 90 22ft 0kts
02-Feb-19 18:31 38.511331 -121.496087 113 22ft 9kts
02-Feb-19 18:32 38.502216 -121.502994 205 378ft 91kts
02-Feb-19 18:33 38.479187 -121.521274 213 1448ft 104kts
02-Feb-19 18:34 38.449542 -121.513251 155 2227ft 122kts
02-Feb-19 18:35 38.420036 -121.494627 164 3187ft 118kts
02-Feb-19 18:36 38.389449 -121.481761 180 4073ft 118kts
02-Feb-19 18:37 38.357490 -121.473917 185 4950ft 116kts
02-Feb-19 18:38 38.324218 -121.468345 185 5498ft 137kts
02-Feb-19 18:39 38.282300 -121.463385 180 5491ft 163kts
02-Feb-19 18:40 38.237129 -121.447393 165 5489ft 175kts
02-Feb-19 18:41 38.192284 -121.422652 165 5475ft 177kts
02-Feb-19 18:42 38.145763 -121.408006 177 5461ft 171kts
02-Feb-19 18:43 38.099036 -121.395548 177 5457ft 170kts
02-Feb-19 18:44 38.052782 -121.383148 177 5461ft 171kts
02-Feb-19 18:45 38.006290 -121.370738 177 5461ft 172kts
02-Feb-19 18:46 37.962718 -121.345979 132 5460ft 190kts
02-Feb-19 18:47 37.938876 -121.285560 120 5461ft 194kts
02-Feb-19 18:48 37.911608 -121.229105 156 5454ft 183kts
02-Feb-19 18:49 37.867291 -121.215093 177 5462ft 172kts
02-Feb-19 18:50 37.820718 -121.202711 177 5462ft 172kts
02-Feb-19 18:51 37.775308 -121.183789 149 5489ft 184kts
02-Feb-19 18:52 37.738305 -121.137995 138 5490ft 189kts
02-Feb-19 18:53 37.703251 -121.088887 138 5490ft 189kts
02-Feb-19 18:54 37.668250 -121.039839 138 5490ft 189kts
02-Feb-19 18:55 37.631967 -120.992517 153 5490ft 183kts
02-Feb-19 18:56 37.590297 -120.955304 152 5491ft 184kts
02-Feb-19 18:57 37.549468 -120.915772 149 5491ft 185kts
02-Feb-19 18:58 37.508883 -120.875814 149 5491ft 185kts
02-Feb-19 18:59 37.468308 -120.835902 149 5491ft 185kts
02-Feb-19 19:00 37.428542 -120.794421 141 5499ft 188kts
02-Feb-19 19:01 37.393931 -120.745405 131 5519ft 191kts
02-Feb-19 19:02 37.366538 -120.687486 117 5520ft 196kts
02-Feb-19 19:03 37.344176 -120.625511 118 5520ft 196kts
02-Feb-19 19:04 37.321806 -120.563437 118 5520ft 196kts
02-Feb-19 19:05 37.299478 -120.501480 118 5520ft 196kts
02-Feb-19 19:06 37.271322 -120.444314 137 5518ft 191kts
02-Feb-19 19:07 37.233810 -120.397904 143 5521ft 188kts
02-Feb-19 19:08 37.195185 -120.353396 143 5528ft 188kts
02-Feb-19 19:09 37.157750 -120.310141 144 5542ft 187kts
02-Feb-19 19:10 37.119684 -120.266171 144 5543ft 187kts
02-Feb-19 19:11 37.081630 -120.222236 144 5509ft 189kts
02-Feb-19 19:12 37.043483 -120.176442 142 5442ft 189kts
02-Feb-19 19:13 37.001880 -120.139264 153 5443ft 184kts
02-Feb-19 19:14 36.960135 -120.102726 151 5443ft 184kts
02-Feb-19 19:15 36.919119 -120.065127 151 5443ft 184kts
02-Feb-19 19:16 36.879316 -120.028638 151 5444ft 184kts
02-Feb-19 19:17 36.837962 -119.990819 151 5462ft 184kts
02-Feb-19 19:18 36.800140 -119.950398 116 4275ft 185kts
02-Feb-19 19:19 36.791927 -119.890150 98 3260ft 157kts
02-Feb-19 19:20 36.768897 -119.844677 138 3477ft 169kts
02-Feb-19 19:21 36.733960 -119.803004 146 3473ft 179kts
02-Feb-19 19:22 36.695741 -119.762565 146 3473ft 182kts
02-Feb-19 19:23 36.657432 -119.722126 146 3473ft 182kts
02-Feb-19 19:24 36.633602 -119.697016 146 3472ft 182kts
02-Feb-19 19:25 36.594830 -119.656545 146 3473ft 183kts
02-Feb-19 19:26 36.555992 -119.615625 146 3473ft 183kts
02-Feb-19 19:27 36.518416 -119.573324 140 3526ft 183kts
02-Feb-19 19:28 36.483234 -119.527024 139 3528ft 185kts
02-Feb-19 19:29 36.443338 -119.488991 151 3528ft 181kts
02-Feb-19 19:30 36.401673 -119.454197 156 3528ft 179kts
02-Feb-19 19:31 36.358517 -119.422989 157 3528ft 179kts
02-Feb-19 19:32 36.314383 -119.396397 163 3528ft 176kts
02-Feb-19 19:33 36.269709 -119.372540 170 3526ft 174kts
02-Feb-19 19:34 36.223170 -119.355735 176 3482ft 172kts
02-Feb-19 19:35 36.177540 -119.345027 180 3477ft 169kts
02-Feb-19 19:36 36.131328 -119.336512 180 3477ft 168kts
02-Feb-19 19:37 36.085157 -119.327992 180 3477ft 168kts
02-Feb-19 19:38 36.058759 -119.322722 178 3477ft 169kts
02-Feb-19 19:39 36.012752 -119.312251 178 3477ft 169kts
02-Feb-19 19:40 35.966566 -119.301725 178 3477ft 169kts
02-Feb-19 19:41 35.920440 -119.290666 173 3478ft 171kts
02-Feb-19 19:42 35.876789 -119.276933 174 3478ft 171kts
02-Feb-19 19:43 35.831845 -119.262800 174 3478ft 171kts
02-Feb-19 19:44 35.786028 -119.248415 174 3481ft 172kts
02-Feb-19 19:45 35.740222 -119.243810 185 3478ft 165kts
02-Feb-19 19:46 35.694344 -119.237394 181 3478ft 167kts
02-Feb-19 19:47 35.663738 -119.264136 244 3478ft 140kts
02-Feb-19 19:48 35.646278 -119.306937 247 3477ft 140kts
02-Feb-19 19:49 35.629109 -119.350117 247 3477ft 140kts
02-Feb-19 19:50 35.612047 -119.393040 247 3477ft 140kts
02-Feb-19 19:51 35.594942 -119.436082 247 3477ft 140kts
02-Feb-19 19:52 35.577810 -119.479206 247 3476ft 140kts
02-Feb-19 19:53 35.560684 -119.522324 247 3476ft 140kts
02-Feb-19 19:54 35.543785 -119.564824 247 3627ft 133kts
02-Feb-19 19:55 35.528972 -119.602898 248 4380ft 117kts
02-Feb-19 19:56 35.513937 -119.642302 248 4478ft 136kts
02-Feb-19 19:57 35.497867 -119.684938 248 4482ft 142kts
02-Feb-19 19:58 35.481190 -119.729309 248 4481ft 144kts
02-Feb-19 19:59 35.464403 -119.774024 248 4481ft 144kts
02-Feb-19 20:00 35.447671 -119.818613 248 4480ft 144kts
02-Feb-19 20:02 35.428282 -119.863943 244 4483ft 161kts
02-Feb-19 20:03 35.407198 -119.914923 244 4480ft 172kts
02-Feb-19 20:04 35.399258 -119.970373 279 4480ft 170kts
02-Feb-19 20:05 35.406069 -120.028697 284 4427ft 182kts
02-Feb-19 20:06 35.448923 -120.050405 23 4418ft 187kts
02-Feb-19 20:07 35.469679 -120.000338 88 4664ft 162kts
02-Feb-19 20:08 35.451177 -119.961115 174 5310ft 152kts
02-Feb-19 20:09 35.424310 -119.993739 251 6007ft 143kts
02-Feb-19 20:10 35.411729 -120.039649 255 6004ft 150kts
02-Feb-19 20:11 35.402384 -120.088808 258 5951ft 143kts
02-Feb-19 20:12 35.393666 -120.135481 258 5978ft 140kts
02-Feb-19 20:13 35.384861 -120.182662 258 5933ft 142kts
02-Feb-19 20:14 35.376103 -120.229697 258 5932ft 142kts
02-Feb-19 20:15 35.367304 -120.276996 258 5932ft 142kts
02-Feb-19 20:16 35.355733 -120.323036 250 5932ft 143kts
02-Feb-19 20:17 35.341420 -120.368415 252 5932ft 143kts
02-Feb-19 20:18 35.335103 -120.415749 262 5931ft 142kts
02-Feb-19 20:19 35.329609 -120.463509 263 5818ft 145kts
02-Feb-19 20:20 35.324014 -120.512977 263 5255ft 146kts
02-Feb-19 20:21 35.318671 -120.559914 261 4523ft 136kts
02-Feb-19 20:21 35.317316 -120.600903 263 3918ft 153kts
02-Feb-19 20:22 35.308211 -120.650011 243 3229ft 150kts
02-Feb-19 20:24 35.312726 -120.706235 290 2934ft 160kts
02-Feb-19 20:24 35.330817 -120.746558 290 2933ft 162kts
02-Feb-19 20:25 35.343579 -120.795930 237 2932ft 144kts
02-Feb-19 20:26 35.311859 -120.794153 103 2922ft 175kts
02-Feb-19 20:28 35.294145 -120.733912 122 3166ft 156kts
02-Feb-19 20:28 35.271164 -120.699769 130 2894ft 174kts
02-Feb-19 20:29 35.250658 -120.652820 119 2781ft 151kts
02-Feb-19 20:30 35.228404 -120.619572 166 3140ft 111kts
02-Feb-19 20:31 35.200077 -120.603457 187 3451ft 117kts
02-Feb-19 20:32 35.167590 -120.614144 238 3074ft 140kts
02-Feb-19 20:33 35.179886 -120.661066 292 2924ft 154kts
02-Feb-19 20:34 35.201319 -120.707947 291 2846ft 160kts
02-Feb-19 20:35 35.227299 -120.751386 303 2924ft 161kts
02-Feb-19 20:36 35.255932 -120.794247 301 2924ft 165kts
02-Feb-19 20:37 35.285141 -120.838086 301 2924ft 167kts
02-Feb-19 20:38 35.327729 -120.849161 27 2926ft 182kts
02-Feb-19 20:39 35.331848 -120.801375 142 2894ft 131kts
02-Feb-19 20:40 35.311120 -120.769300 126 2672ft 104kts
02-Feb-19 20:41 35.296952 -120.744233 140 2315ft 89kts
02-Feb-19 20:42 35.283606 -120.719501 133 1639ft 84kts
02-Feb-19 20:43 35.269501 -120.697522 134 1272ft 85kts
02-Feb-19 20:44 35.256302 -120.674121 134 711ft 83kts
02-Feb-19 20:45 35.243741 -120.652151 138 308ft 71kts
02-Feb-19 20:46 35.237878 -120.640074 120 179ft 0kts
02-Feb-19 20:47 35.238524 -120.639637 22 179ft 9kts

Navigation Log

Ident Type
Flight plan parsing failed, navigation log unavailable